Guerneville, CA

8:45 AM PDT on May 29, 2015 (GMT -0700)
Stumptown Brewery | | Change Station
CLOSE
Current Station
Personal Weather Station
Location: Guerneville, CA
Elevation: 55 ft
Nearby Weather Stations

Elev 55 ft 38.51 °N, 122.98 °W | Updated 2 minutes ago

Fog
Fog
52.0 °F
Feels Like 52.0 °F
N
0.0
Wind Variable Wind from SW
Gusts 1.0 mph

Today
High -- | Low -- °F
--% Chance of Precip.
Yesterday
High -- | Low -- °F
Precip. -- in
5:50 AM 8:28 PM
Waxing Gibbous, 84% visible
Pressure 29.96 in
Visibility 1.5 miles
Clouds Overcast 300 ft
Dew Point 48 °F
Humidity 87%
Rainfall 0.00 in
Snow Depth Not available.
UV 0.9 out of 12
Pollen 5.60 out of 12
Air Quality Not available.
Flu Activity Sporadic
METAR KSTS 291453Z 00000KT 1 1/2SM BR OVC003 11/09 A2997 RMK AO2 SLP144 T01110094 53007

More Conditions Fewer Conditions

Pressure 29.96 in
Visibility 1.5 miles
Clouds Overcast 300 ft
Dew Point 48 °F
Humidity 87%
Rainfall 0.00 in
Snow Depth Not available.
UV 0.9 out of 12
Pollen 5.60 out of 12
Air Quality Not available.
Flu Activity Sporadic
METAR KSTS 291453Z 00000KT 1 1/2SM BR OVC003 11/09 A2997 RMK AO2 SLP144 T01110094 53007

More Conditions Fewer Conditions

10-Day Weather Forecast

Almanac

Astronomy

May. 29, 2015 Rise Set
Actual Time
Civil Twilight
Nautical Twilight
Astronomical Twilight
Moon
Length of Visible Light
Length of Day
Tomorrow will be .
, % of the Moon is Illuminated

Today's Extremes

State Highs State Lows

Community

WunderPhotos

Upload Photos

1,825,294 photos uploaded!

WunderBlogs® & News

Nearby

Air Quality

  Air Quality AQ Index Pollutant
Not available.

Snow Depth

Station Depth Elevation

Earthquake Activity

City Distance Mag. Time & Date
Minimum magnitude displayed is 2.5.

Coastal Water Temperatures

Place Temperature

Stations

Nearby Weather Stations

Station Location Temp. Windchill Dew Point Humidity Wind Precip. Elev Updated Type